createdAt,value
2018-10-19T00:09:12.092Z,12.17
2018-10-19T00:19:16.746Z,12.20
2018-10-19T00:29:21.620Z,12.37
2018-10-19T00:39:26.392Z,12.33
2018-10-19T00:49:31.081Z,12.33
2018-10-19T00:59:35.924Z,12.53
2018-10-19T01:09:40.610Z,12.07
2018-10-19T01:19:45.300Z,11.67
2018-10-19T01:29:49.973Z,12.20
2018-10-19T01:39:54.755Z,11.77
2018-10-19T01:50:00.256Z,12.40
2018-10-19T02:00:05.961Z,11.73
2018-10-19T02:10:10.755Z,12.17
2018-10-19T02:20:15.529Z,12.00
2018-10-19T02:30:20.339Z,11.93
2018-10-19T02:40:25.063Z,11.33
2018-10-19T02:50:30.328Z,11.07
2018-10-19T03:00:35.080Z,11.30
2018-10-19T03:10:39.819Z,11.80
2018-10-19T03:20:44.642Z,11.73
2018-10-19T03:30:49.347Z,11.90
2018-10-19T03:40:54.855Z,11.83
2018-10-19T03:50:59.592Z,11.30
2018-10-19T04:01:04.352Z,11.87
2018-10-19T04:11:09.251Z,12.20
2018-10-19T04:21:13.983Z,12.30
2018-10-19T04:31:19.957Z,12.33
2018-10-19T04:41:24.839Z,13.10
2018-10-19T04:51:29.795Z,17.30
2018-10-19T05:01:34.487Z,14.57
2018-10-19T05:11:39.762Z,16.47
2018-10-19T05:21:44.536Z,25.40
2018-10-19T05:31:49.180Z,21.30
2018-10-19T05:41:53.945Z,23.20
2018-10-19T05:51:59.629Z,21.80
2018-10-19T06:02:04.425Z,21.57
2018-10-19T06:12:09.148Z,19.27
2018-10-19T06:22:13.955Z,17.20
2018-10-19T06:32:18.938Z,22.63
2018-10-19T06:42:23.480Z,35.53
2018-10-19T06:52:29.092Z,32.20
2018-10-19T07:02:35.105Z,28.50
2018-10-19T07:12:40.740Z,27.30
2018-10-19T07:22:46.211Z,30.03
2018-10-19T07:32:51.116Z,23.10
2018-10-19T07:42:56.000Z,19.30
2018-10-19T07:53:01.054Z,27.17
2018-10-19T08:03:05.894Z,21.07
2018-10-19T08:13:10.656Z,18.50
2018-10-19T08:23:15.435Z,28.87
2018-10-19T08:33:20.064Z,34.73
2018-10-19T08:43:24.764Z,26.30
2018-10-19T08:53:30.275Z,24.47
2018-10-19T09:03:34.998Z,23.73
2018-10-19T09:13:40.515Z,22.60
2018-10-19T09:23:45.507Z,22.30
2018-10-19T09:33:50.400Z,20.40
2018-10-19T09:43:55.169Z,19.47
2018-10-19T09:54:00.081Z,18.73
2018-10-19T10:04:05.152Z,23.80
2018-10-19T10:14:10.024Z,26.30
2018-10-19T10:24:14.751Z,30.97
2018-10-19T10:34:19.533Z,33.50
2018-10-19T10:44:24.232Z,39.93
2018-10-19T10:54:28.934Z,40.10
2018-10-19T11:04:33.631Z,41.30
2018-10-19T11:14:38.432Z,36.40
2018-10-19T11:24:43.175Z,36.13
2018-10-19T11:34:47.850Z,36.17
2018-10-19T11:44:52.632Z,31.90
2018-10-19T11:54:57.437Z,31.73
2018-10-19T12:05:02.615Z,32.83
2018-10-19T12:15:10.552Z,34.33
2018-10-19T12:25:16.577Z,31.17
2018-10-19T12:35:21.279Z,36.33
2018-10-19T12:46:43.332Z,32.23
2018-10-19T12:56:48.024Z,34.00
2018-10-19T13:06:52.857Z,32.23
2018-10-19T13:16:58.711Z,32.10
2018-10-19T13:27:03.591Z,37.30
2018-10-19T13:37:08.403Z,41.07
2018-10-19T13:47:13.175Z,38.90
2018-10-19T13:57:17.900Z,38.83
2018-10-19T14:07:23.170Z,38.03
2018-10-19T14:17:28.775Z,35.57
2018-10-19T14:27:34.026Z,32.63
2018-10-19T14:37:41.538Z,33.60
2018-10-19T14:47:47.443Z,33.87
2018-10-19T14:57:53.862Z,31.83
2018-10-19T15:07:58.608Z,30.67
2018-10-19T15:18:05.091Z,32.00
2018-10-19T15:28:10.928Z,29.10
2018-10-19T15:38:15.553Z,24.90
2018-10-19T15:48:20.228Z,23.03
2018-10-19T15:58:25.233Z,20.63
2018-10-19T16:08:30.544Z,19.70
2018-10-19T16:18:35.265Z,20.50
2018-10-19T16:28:40.096Z,19.80
2018-10-19T16:38:45.824Z,19.07
2018-10-19T16:48:50.546Z,18.83
2018-10-19T16:58:55.369Z,17.40
2018-10-19T17:09:00.163Z,18.67
2018-10-19T17:19:05.403Z,17.63
2018-10-19T17:29:10.509Z,16.73
2018-10-19T17:39:15.284Z,16.93
2018-10-19T17:49:19.880Z,16.80
2018-10-19T17:59:24.792Z,16.57
2018-10-19T18:09:29.598Z,15.97
2018-10-19T18:19:34.389Z,16.17
2018-10-19T18:29:40.152Z,16.97
2018-10-19T18:39:44.821Z,17.17
2018-10-19T18:49:49.493Z,16.83
2018-10-19T18:59:54.307Z,17.27
2018-10-19T19:10:04.075Z,17.83
2018-10-19T19:20:14.799Z,16.87
2018-10-19T19:30:19.607Z,16.90
2018-10-19T19:40:24.355Z,16.67
2018-10-19T19:50:28.928Z,16.13
2018-10-19T20:00:33.612Z,15.73
2018-10-19T20:10:38.543Z,15.67
2018-10-19T20:20:43.179Z,16.43
2018-10-19T20:30:48.068Z,15.77
2018-10-19T20:40:52.901Z,15.63
2018-10-19T20:50:57.528Z,15.20
2018-10-19T21:01:02.164Z,15.60
2018-10-19T21:11:07.196Z,15.80
2018-10-19T21:21:12.321Z,15.10
2018-10-19T21:31:17.223Z,14.83
2018-10-19T21:41:22.024Z,15.23
2018-10-19T21:51:26.795Z,15.00
2018-10-19T22:01:31.732Z,14.40
2018-10-19T22:11:36.558Z,14.73
2018-10-19T22:21:41.864Z,14.00
2018-10-19T22:31:46.771Z,14.10
2018-10-19T22:41:51.596Z,13.67
2018-10-19T22:51:57.439Z,14.93
2018-10-19T23:02:02.209Z,13.53
2018-10-19T23:12:07.324Z,14.40
2018-10-19T23:22:12.073Z,14.07
2018-10-19T23:32:17.115Z,13.90
2018-10-19T23:42:21.824Z,14.33
2018-10-19T23:52:26.553Z,13.90
